sensor_id;sensor_type;location;lat;lon;timestamp;P1;durP1;ratioP1;P2;durP2;ratioP2
18399;SDS011;9326;49.468;11.008;2024-01-30T00:02:17;14.30;;;7.70;;
18399;SDS011;9326;49.468;11.008;2024-01-30T00:04:44;12.93;;;7.53;;
18399;SDS011;9326;49.468;11.008;2024-01-30T00:07:12;11.17;;;7.77;;
18399;SDS011;9326;49.468;11.008;2024-01-30T00:09:40;11.17;;;6.90;;
18399;SDS011;9326;49.468;11.008;2024-01-30T00:12:07;12.20;;;7.17;;
18399;SDS011;9326;49.468;11.008;2024-01-30T00:14:34;13.30;;;7.00;;
18399;SDS011;9326;49.468;11.008;2024-01-30T00:17:01;11.93;;;7.90;;
18399;SDS011;9326;49.468;11.008;2024-01-30T00:19:29;10.30;;;6.93;;
18399;SDS011;9326;49.468;11.008;2024-01-30T00:21:57;14.77;;;8.40;;
18399;SDS011;9326;49.468;11.008;2024-01-30T00:24:25;12.87;;;7.50;;
18399;SDS011;9326;49.468;11.008;2024-01-30T00:26:52;11.13;;;7.17;;
18399;SDS011;9326;49.468;11.008;2024-01-30T00:29:19;13.97;;;7.30;;
18399;SDS011;9326;49.468;11.008;2024-01-30T00:31:48;14.57;;;8.20;;
18399;SDS011;9326;49.468;11.008;2024-01-30T00:34:15;12.40;;;7.77;;
18399;SDS011;9326;49.468;11.008;2024-01-30T00:36:42;13.50;;;8.73;;
18399;SDS011;9326;49.468;11.008;2024-01-30T00:39:09;15.90;;;8.90;;
18399;SDS011;9326;49.468;11.008;2024-01-30T00:41:38;11.93;;;8.40;;
18399;SDS011;9326;49.468;11.008;2024-01-30T00:44:05;12.63;;;8.37;;
18399;SDS011;9326;49.468;11.008;2024-01-30T00:46:32;16.93;;;10.73;;
18399;SDS011;9326;49.468;11.008;2024-01-30T00:48:59;19.60;;;11.30;;
18399;SDS011;9326;49.468;11.008;2024-01-30T00:51:27;19.20;;;11.13;;
18399;SDS011;9326;49.468;11.008;2024-01-30T00:53:55;20.40;;;11.90;;
18399;SDS011;9326;49.468;11.008;2024-01-30T00:56:22;23.67;;;13.37;;
18399;SDS011;9326;49.468;11.008;2024-01-30T00:58:51;16.63;;;9.77;;
18399;SDS011;9326;49.468;11.008;2024-01-30T06:01:30;11.67;;;7.00;;
18399;SDS011;9326;49.468;11.008;2024-01-30T06:03:57;11.90;;;7.53;;
18399;SDS011;9326;49.468;11.008;2024-01-30T06:06:24;8.43;;;6.80;;
18399;SDS011;9326;49.468;11.008;2024-01-30T06:08:52;13.07;;;8.47;;
18399;SDS011;9326;49.468;11.008;2024-01-30T06:11:21;12.87;;;9.13;;
18399;SDS011;9326;49.468;11.008;2024-01-30T06:13:48;13.20;;;8.93;;
18399;SDS011;9326;49.468;11.008;2024-01-30T06:16:15;11.30;;;8.77;;
18399;SDS011;9326;49.468;11.008;2024-01-30T06:18:44;12.40;;;8.57;;
18399;SDS011;9326;49.468;11.008;2024-01-30T06:21:11;14.40;;;9.40;;
18399;SDS011;9326;49.468;11.008;2024-01-30T06:23:40;13.63;;;8.83;;
18399;SDS011;9326;49.468;11.008;2024-01-30T06:26:07;15.33;;;9.83;;
18399;SDS011;9326;49.468;11.008;2024-01-30T06:28:34;13.13;;;9.27;;
18399;SDS011;9326;49.468;11.008;2024-01-30T06:31:01;14.90;;;10.17;;
18399;SDS011;9326;49.468;11.008;2024-01-30T06:33:28;16.07;;;9.97;;
18399;SDS011;9326;49.468;11.008;2024-01-30T06:35:57;13.83;;;9.20;;
18399;SDS011;9326;49.468;11.008;2024-01-30T06:38:25;16.27;;;10.10;;
18399;SDS011;9326;49.468;11.008;2024-01-30T06:40:55;15.07;;;9.87;;
18399;SDS011;9326;49.468;11.008;2024-01-30T06:43:22;17.23;;;11.07;;
18399;SDS011;9326;49.468;11.008;2024-01-30T06:45:49;12.63;;;9.00;;
18399;SDS011;9326;49.468;11.008;2024-01-30T06:48:17;15.50;;;10.20;;
18399;SDS011;9326;49.468;11.008;2024-01-30T06:50:44;14.27;;;9.60;;
18399;SDS011;9326;49.468;11.008;2024-01-30T06:53:14;16.17;;;10.37;;
18399;SDS011;9326;49.468;11.008;2024-01-30T06:55:41;17.90;;;11.50;;
18399;SDS011;9326;49.468;11.008;2024-01-30T06:58:08;16.23;;;10.20;;
18399;SDS011;9326;49.468;11.008;2024-01-30T07:00:37;16.33;;;9.77;;
18399;SDS011;9326;49.468;11.008;2024-01-30T07:03:04;16.67;;;10.33;;
18399;SDS011;9326;49.468;11.008;2024-01-30T07:05:31;16.27;;;10.20;;
18399;SDS011;9326;49.468;11.008;2024-01-30T07:07:59;18.77;;;11.90;;
18399;SDS011;9326;49.468;11.008;2024-01-30T07:10:27;15.20;;;10.00;;
18399;SDS011;9326;49.468;11.008;2024-01-30T07:12:56;17.37;;;10.83;;
18399;SDS011;9326;49.468;11.008;2024-01-30T07:15:23;15.00;;;10.70;;
18399;SDS011;9326;49.468;11.008;2024-01-30T07:17:50;14.83;;;10.37;;
18399;SDS011;9326;49.468;11.008;2024-01-30T07:20:17;19.40;;;10.87;;
18399;SDS011;9326;49.468;11.008;2024-01-30T07:22:45;15.30;;;11.70;;
18399;SDS011;9326;49.468;11.008;2024-01-30T07:25:12;16.90;;;10.77;;
18399;SDS011;9326;49.468;11.008;2024-01-30T07:27:41;16.40;;;11.00;;
18399;SDS011;9326;49.468;11.008;2024-01-30T07:30:11;17.73;;;11.97;;
18399;SDS011;9326;49.468;11.008;2024-01-30T07:32:39;16.67;;;11.07;;
18399;SDS011;9326;49.468;11.008;2024-01-30T07:35:06;16.03;;;11.33;;
18399;SDS011;9326;49.468;11.008;2024-01-30T07:37:34;20.17;;;13.07;;
18399;SDS011;9326;49.468;11.008;2024-01-30T07:40:01;16.87;;;12.00;;
18399;SDS011;9326;49.468;11.008;2024-01-30T07:42:28;14.30;;;11.10;;
18399;SDS011;9326;49.468;11.008;2024-01-30T07:44:57;16.10;;;11.80;;
18399;SDS011;9326;49.468;11.008;2024-01-30T07:47:24;15.77;;;11.27;;
18399;SDS011;9326;49.468;11.008;2024-01-30T07:49:51;16.37;;;11.10;;
18399;SDS011;9326;49.468;11.008;2024-01-30T07:52:19;16.83;;;11.83;;
18399;SDS011;9326;49.468;11.008;2024-01-30T07:54:46;17.20;;;11.30;;
18399;SDS011;9326;49.468;11.008;2024-01-30T07:57:14;16.87;;;11.90;;
18399;SDS011;9326;49.468;11.008;2024-01-30T07:59:41;14.70;;;10.73;;
18399;SDS011;9326;49.468;11.008;2024-01-30T08:02:13;17.83;;;11.57;;
18399;SDS011;9326;49.468;11.008;2024-01-30T08:04:40;16.07;;;12.50;;
18399;SDS011;9326;49.468;11.008;2024-01-30T08:07:07;20.80;;;13.00;;
18399;SDS011;9326;49.468;11.008;2024-01-30T08:09:34;18.50;;;13.17;;
18399;SDS011;9326;49.468;11.008;2024-01-30T08:12:02;15.90;;;11.87;;
18399;SDS011;9326;49.468;11.008;2024-01-30T08:14:29;16.57;;;12.93;;
18399;SDS011;9326;49.468;11.008;2024-01-30T08:16:56;19.80;;;13.10;;
18399;SDS011;9326;49.468;11.008;2024-01-30T08:19:24;17.47;;;12.97;;
18399;SDS011;9326;49.468;11.008;2024-01-30T08:21:52;20.37;;;13.70;;
18399;SDS011;9326;49.468;11.008;2024-01-30T08:24:19;19.33;;;13.33;;
18399;SDS011;9326;49.468;11.008;2024-01-30T08:26:46;18.67;;;12.73;;
18399;SDS011;9326;49.468;11.008;2024-01-30T08:29:13;17.17;;;12.97;;
18399;SDS011;9326;49.468;11.008;2024-01-30T08:31:40;17.90;;;12.87;;
18399;SDS011;9326;49.468;11.008;2024-01-30T08:34:07;18.93;;;14.30;;
18399;SDS011;9326;49.468;11.008;2024-01-30T08:36:36;21.53;;;13.47;;
18399;SDS011;9326;49.468;11.008;2024-01-30T08:39:03;22.87;;;15.03;;
18399;SDS011;9326;49.468;11.008;2024-01-30T08:41:31;20.87;;;14.40;;
18399;SDS011;9326;49.468;11.008;2024-01-30T08:43:58;19.63;;;12.40;;
18399;SDS011;9326;49.468;11.008;2024-01-30T08:46:25;21.07;;;13.60;;
18399;SDS011;9326;49.468;11.008;2024-01-30T08:48:52;16.67;;;13.13;;
18399;SDS011;9326;49.468;11.008;2024-01-30T08:51:20;16.80;;;13.13;;
18399;SDS011;9326;49.468;11.008;2024-01-30T08:53:50;19.80;;;13.57;;
18399;SDS011;9326;49.468;11.008;2024-01-30T08:56:17;16.33;;;12.77;;
18399;SDS011;9326;49.468;11.008;2024-01-30T08:58:45;15.77;;;13.03;;
18399;SDS011;9326;49.468;11.008;2024-01-30T09:01:12;17.87;;;12.47;;
18399;SDS011;9326;49.468;11.008;2024-01-30T09:03:39;15.50;;;12.87;;
18399;SDS011;9326;49.468;11.008;2024-01-30T09:06:08;19.17;;;13.67;;
18399;SDS011;9326;49.468;11.008;2024-01-30T09:08:35;17.40;;;12.93;;
18399;SDS011;9326;49.468;11.008;2024-01-30T09:11:09;17.07;;;12.63;;
18399;SDS011;9326;49.468;11.008;2024-01-30T09:13:36;16.57;;;13.00;;
18399;SDS011;9326;49.468;11.008;2024-01-30T09:16:03;21.93;;;13.10;;
18399;SDS011;9326;49.468;11.008;2024-01-30T09:18:31;17.23;;;13.43;;
18399;SDS011;9326;49.468;11.008;2024-01-30T09:20:58;17.30;;;13.47;;
18399;SDS011;9326;49.468;11.008;2024-01-30T09:23:26;15.50;;;12.47;;
18399;SDS011;9326;49.468;11.008;2024-01-30T09:25:54;15.70;;;12.73;;
18399;SDS011;9326;49.468;11.008;2024-01-30T09:28:23;16.90;;;12.53;;
18399;SDS011;9326;49.468;11.008;2024-01-30T09:30:51;19.43;;;12.90;;
18399;SDS011;9326;49.468;11.008;2024-01-30T09:33:18;16.87;;;12.73;;
18399;SDS011;9326;49.468;11.008;2024-01-30T09:35:46;18.57;;;12.33;;
18399;SDS011;9326;49.468;11.008;2024-01-30T09:38:13;16.90;;;12.37;;
18399;SDS011;9326;49.468;11.008;2024-01-30T09:40:40;20.33;;;13.37;;
18399;SDS011;9326;49.468;11.008;2024-01-30T09:43:08;20.00;;;14.07;;
18399;SDS011;9326;49.468;11.008;2024-01-30T09:45:37;25.80;;;18.50;;
18399;SDS011;9326;49.468;11.008;2024-01-30T09:48:06;16.53;;;14.27;;
18399;SDS011;9326;49.468;11.008;2024-01-30T09:50:33;17.90;;;13.93;;
18399;SDS011;9326;49.468;11.008;2024-01-30T09:53:02;21.57;;;15.57;;
18399;SDS011;9326;49.468;11.008;2024-01-30T09:55:31;22.40;;;16.53;;
18399;SDS011;9326;49.468;11.008;2024-01-30T09:57:58;23.60;;;15.43;;
18399;SDS011;9326;49.468;11.008;2024-01-30T10:00:25;20.30;;;15.70;;
18399;SDS011;9326;49.468;11.008;2024-01-30T10:02:54;21.40;;;16.07;;
18399;SDS011;9326;49.468;11.008;2024-01-30T10:05:21;23.13;;;15.63;;
18399;SDS011;9326;49.468;11.008;2024-01-30T10:07:53;17.90;;;14.07;;
18399;SDS011;9326;49.468;11.008;2024-01-30T10:10:21;22.93;;;17.60;;
18399;SDS011;9326;49.468;11.008;2024-01-30T10:12:49;24.43;;;18.50;;
18399;SDS011;9326;49.468;11.008;2024-01-30T10:15:17;22.80;;;17.50;;
18399;SDS011;9326;49.468;11.008;2024-01-30T10:17:44;20.80;;;16.37;;
18399;SDS011;9326;49.468;11.008;2024-01-30T10:20:13;21.57;;;16.93;;
18399;SDS011;9326;49.468;11.008;2024-01-30T10:22:42;21.47;;;16.47;;
18399;SDS011;9326;49.468;11.008;2024-01-30T10:25:10;22.13;;;17.40;;
18399;SDS011;9326;49.468;11.008;2024-01-30T10:27:39;29.03;;;20.80;;
18399;SDS011;9326;49.468;11.008;2024-01-30T10:30:06;19.43;;;15.77;;
18399;SDS011;9326;49.468;11.008;2024-01-30T10:32:34;29.70;;;22.27;;
18399;SDS011;9326;49.468;11.008;2024-01-30T10:35:01;22.57;;;16.53;;
18399;SDS011;9326;49.468;11.008;2024-01-30T10:37:30;23.73;;;17.43;;
18399;SDS011;9326;49.468;11.008;2024-01-30T10:39:59;24.37;;;16.50;;
18399;SDS011;9326;49.468;11.008;2024-01-30T10:42:28;19.03;;;14.20;;
18399;SDS011;9326;49.468;11.008;2024-01-30T10:45:00;16.60;;;13.33;;
18399;SDS011;9326;49.468;11.008;2024-01-30T10:47:28;17.90;;;12.97;;
18399;SDS011;9326;49.468;11.008;2024-01-30T10:49:56;16.37;;;12.67;;
18399;SDS011;9326;49.468;11.008;2024-01-30T10:52:24;17.13;;;12.70;;
18399;SDS011;9326;49.468;11.008;2024-01-30T10:54:53;16.73;;;12.57;;
18399;SDS011;9326;49.468;11.008;2024-01-30T10:57:20;18.67;;;12.00;;
18399;SDS011;9326;49.468;11.008;2024-01-30T10:59:49;16.43;;;12.90;;
18399;SDS011;9326;49.468;11.008;2024-01-30T11:02:19;15.27;;;13.57;;
18399;SDS011;9326;49.468;11.008;2024-01-30T11:04:46;14.87;;;12.77;;
18399;SDS011;9326;49.468;11.008;2024-01-30T11:07:14;15.43;;;11.10;;
18399;SDS011;9326;49.468;11.008;2024-01-30T11:09:48;15.93;;;11.70;;
18399;SDS011;9326;49.468;11.008;2024-01-30T11:12:18;13.20;;;11.77;;
18399;SDS011;9326;49.468;11.008;2024-01-30T11:14:48;14.10;;;12.47;;
18399;SDS011;9326;49.468;11.008;2024-01-30T11:17:15;16.13;;;11.07;;
18399;SDS011;9326;49.468;11.008;2024-01-30T11:19:42;13.97;;;11.70;;
18399;SDS011;9326;49.468;11.008;2024-01-30T11:22:10;15.20;;;11.63;;
18399;SDS011;9326;49.468;11.008;2024-01-30T11:24:39;12.50;;;11.20;;
18399;SDS011;9326;49.468;11.008;2024-01-30T11:27:07;14.67;;;11.53;;
18399;SDS011;9326;49.468;11.008;2024-01-30T11:29:36;15.47;;;10.63;;
18399;SDS011;9326;49.468;11.008;2024-01-30T11:32:04;16.10;;;10.73;;
18399;SDS011;9326;49.468;11.008;2024-01-30T11:34:32;14.93;;;10.87;;
18399;SDS011;9326;49.468;11.008;2024-01-30T11:37:02;15.57;;;11.40;;
18399;SDS011;9326;49.468;11.008;2024-01-30T11:39:30;14.17;;;11.17;;
18399;SDS011;9326;49.468;11.008;2024-01-30T11:41:58;13.63;;;10.17;;
18399;SDS011;9326;49.468;11.008;2024-01-30T11:44:25;18.97;;;10.43;;
18399;SDS011;9326;49.468;11.008;2024-01-30T11:46:54;12.63;;;10.43;;
18399;SDS011;9326;49.468;11.008;2024-01-30T11:49:21;14.13;;;11.13;;
18399;SDS011;9326;49.468;11.008;2024-01-30T11:51:50;16.00;;;10.60;;
18399;SDS011;9326;49.468;11.008;2024-01-30T11:54:18;13.83;;;10.53;;
18399;SDS011;9326;49.468;11.008;2024-01-30T11:56:45;16.70;;;10.70;;
18399;SDS011;9326;49.468;11.008;2024-01-30T11:59:13;15.40;;;11.93;;
18399;SDS011;9326;49.468;11.008;2024-01-30T12:01:40;14.43;;;11.43;;
18399;SDS011;9326;49.468;11.008;2024-01-30T12:04:09;15.40;;;11.23;;
18399;SDS011;9326;49.468;11.008;2024-01-30T12:06:36;15.70;;;11.63;;
18399;SDS011;9326;49.468;11.008;2024-01-30T12:09:04;14.27;;;10.50;;
18399;SDS011;9326;49.468;11.008;2024-01-30T12:11:34;13.33;;;10.70;;
18399;SDS011;9326;49.468;11.008;2024-01-30T12:14:09;11.33;;;10.13;;
18399;SDS011;9326;49.468;11.008;2024-01-30T12:16:37;13.20;;;10.40;;
18399;SDS011;9326;49.468;11.008;2024-01-30T12:19:04;15.63;;;12.23;;
18399;SDS011;9326;49.468;11.008;2024-01-30T12:21:33;15.07;;;12.90;;
18399;SDS011;9326;49.468;11.008;2024-01-30T12:24:01;16.27;;;13.00;;
18399;SDS011;9326;49.468;11.008;2024-01-30T12:26:28;17.40;;;13.50;;
18399;SDS011;9326;49.468;11.008;2024-01-30T12:28:55;17.17;;;13.70;;
18399;SDS011;9326;49.468;11.008;2024-01-30T12:31:25;17.90;;;14.30;;
18399;SDS011;9326;49.468;11.008;2024-01-30T12:33:53;16.23;;;13.67;;
18399;SDS011;9326;49.468;11.008;2024-01-30T12:36:21;16.53;;;12.60;;
18399;SDS011;9326;49.468;11.008;2024-01-30T12:38:49;40.93;;;29.07;;
18399;SDS011;9326;49.468;11.008;2024-01-30T12:41:16;116.73;;;75.10;;
18399;SDS011;9326;49.468;11.008;2024-01-30T12:43:45;62.57;;;42.97;;
18399;SDS011;9326;49.468;11.008;2024-01-30T12:46:12;84.93;;;63.03;;
18399;SDS011;9326;49.468;11.008;2024-01-30T12:48:39;66.67;;;50.07;;
18399;SDS011;9326;49.468;11.008;2024-01-30T12:51:07;39.40;;;32.77;;
18399;SDS011;9326;49.468;11.008;2024-01-30T12:53:34;24.07;;;21.53;;
18399;SDS011;9326;49.468;11.008;2024-01-30T12:56:03;21.50;;;15.93;;
18399;SDS011;9326;49.468;11.008;2024-01-30T12:58:30;20.37;;;14.93;;
18399;SDS011;9326;49.468;11.008;2024-01-30T13:00:58;16.20;;;12.73;;
18399;SDS011;9326;49.468;11.008;2024-01-30T13:03:26;14.50;;;11.67;;
18399;SDS011;9326;49.468;11.008;2024-01-30T13:05:53;12.47;;;11.17;;
18399;SDS011;9326;49.468;11.008;2024-01-30T13:08:21;15.20;;;11.53;;
18399;SDS011;9326;49.468;11.008;2024-01-30T13:10:48;15.70;;;11.67;;
18399;SDS011;9326;49.468;11.008;2024-01-30T13:13:16;13.93;;;11.07;;
18399;SDS011;9326;49.468;11.008;2024-01-30T13:15:44;13.67;;;11.90;;
18399;SDS011;9326;49.468;11.008;2024-01-30T13:18:11;14.43;;;11.40;;
18399;SDS011;9326;49.468;11.008;2024-01-30T13:20:38;14.50;;;11.47;;
18399;SDS011;9326;49.468;11.008;2024-01-30T13:23:07;15.33;;;11.67;;
18399;SDS011;9326;49.468;11.008;2024-01-30T13:25:34;16.70;;;11.67;;
18399;SDS011;9326;49.468;11.008;2024-01-30T13:28:01;17.23;;;14.50;;
18399;SDS011;9326;49.468;11.008;2024-01-30T13:30:30;22.87;;;19.43;;
18399;SDS011;9326;49.468;11.008;2024-01-30T13:32:57;35.47;;;31.17;;
18399;SDS011;9326;49.468;11.008;2024-01-30T13:35:25;30.47;;;25.97;;
18399;SDS011;9326;49.468;11.008;2024-01-30T13:37:52;19.97;;;17.50;;
18399;SDS011;9326;49.468;11.008;2024-01-30T13:40:19;15.63;;;12.10;;
18399;SDS011;9326;49.468;11.008;2024-01-30T13:42:47;13.87;;;11.33;;
18399;SDS011;9326;49.468;11.008;2024-01-30T13:45:14;13.53;;;11.23;;
18399;SDS011;9326;49.468;11.008;2024-01-30T13:47:43;14.83;;;11.20;;
18399;SDS011;9326;49.468;11.008;2024-01-30T13:50:10;14.53;;;12.33;;
18399;SDS011;9326;49.468;11.008;2024-01-30T13:52:40;13.57;;;11.20;;
18399;SDS011;9326;49.468;11.008;2024-01-30T13:55:07;18.43;;;14.10;;
18399;SDS011;9326;49.468;11.008;2024-01-30T13:57:34;13.93;;;11.20;;
18399;SDS011;9326;49.468;11.008;2024-01-30T14:00:02;14.90;;;11.57;;
18399;SDS011;9326;49.468;11.008;2024-01-30T14:02:31;15.70;;;11.53;;
18399;SDS011;9326;49.468;11.008;2024-01-30T14:05:00;15.83;;;10.90;;
18399;SDS011;9326;49.468;11.008;2024-01-30T14:07:29;14.57;;;11.90;;
18399;SDS011;9326;49.468;11.008;2024-01-30T14:09:56;15.00;;;11.23;;
18399;SDS011;9326;49.468;11.008;2024-01-30T14:12:23;14.43;;;11.50;;
18399;SDS011;9326;49.468;11.008;2024-01-30T14:14:50;15.10;;;11.77;;
18399;SDS011;9326;49.468;11.008;2024-01-30T14:17:17;14.40;;;11.83;;
18399;SDS011;9326;49.468;11.008;2024-01-30T14:19:44;13.90;;;11.70;;
18399;SDS011;9326;49.468;11.008;2024-01-30T14:22:13;16.37;;;13.00;;
18399;SDS011;9326;49.468;11.008;2024-01-30T14:24:40;13.90;;;12.30;;
18399;SDS011;9326;49.468;11.008;2024-01-30T14:27:08;14.53;;;12.30;;
18399;SDS011;9326;49.468;11.008;2024-01-30T14:29:36;15.97;;;12.43;;
18399;SDS011;9326;49.468;11.008;2024-01-30T14:32:03;18.37;;;11.77;;
18399;SDS011;9326;49.468;11.008;2024-01-30T14:34:31;13.50;;;11.23;;
18399;SDS011;9326;49.468;11.008;2024-01-30T14:36:58;12.63;;;11.30;;
18399;SDS011;9326;49.468;11.008;2024-01-30T14:39:26;14.03;;;11.10;;
18399;SDS011;9326;49.468;11.008;2024-01-30T14:41:53;17.87;;;12.20;;
18399;SDS011;9326;49.468;11.008;2024-01-30T14:44:21;13.90;;;11.23;;
18399;SDS011;9326;49.468;11.008;2024-01-30T14:46:48;15.10;;;10.93;;
18399;SDS011;9326;49.468;11.008;2024-01-30T14:49:15;15.33;;;12.60;;
18399;SDS011;9326;49.468;11.008;2024-01-30T14:51:42;17.33;;;12.17;;
18399;SDS011;9326;49.468;11.008;2024-01-30T14:54:09;16.50;;;12.00;;
18399;SDS011;9326;49.468;11.008;2024-01-30T14:56:38;17.13;;;12.23;;
18399;SDS011;9326;49.468;11.008;2024-01-30T14:59:05;14.50;;;12.07;;
18399;SDS011;9326;49.468;11.008;2024-01-30T15:01:32;20.27;;;15.13;;
18399;SDS011;9326;49.468;11.008;2024-01-30T15:03:59;21.80;;;15.70;;
18399;SDS011;9326;49.468;11.008;2024-01-30T15:06:27;26.90;;;19.27;;
18399;SDS011;9326;49.468;11.008;2024-01-30T15:08:55;27.33;;;21.23;;
18399;SDS011;9326;49.468;11.008;2024-01-30T15:11:22;23.40;;;16.17;;
18399;SDS011;9326;49.468;11.008;2024-01-30T15:13:50;19.73;;;14.30;;
18399;SDS011;9326;49.468;11.008;2024-01-30T15:16:18;16.93;;;11.77;;
18399;SDS011;9326;49.468;11.008;2024-01-30T15:18:46;16.33;;;11.10;;
18399;SDS011;9326;49.468;11.008;2024-01-30T15:21:13;15.80;;;10.93;;
18399;SDS011;9326;49.468;11.008;2024-01-30T15:23:45;13.13;;;10.50;;
18399;SDS011;9326;49.468;11.008;2024-01-30T15:26:13;13.13;;;10.17;;
18399;SDS011;9326;49.468;11.008;2024-01-30T15:28:40;12.63;;;10.23;;
18399;SDS011;9326;49.468;11.008;2024-01-30T15:31:10;17.53;;;10.87;;
18399;SDS011;9326;49.468;11.008;2024-01-30T15:33:39;15.80;;;10.90;;
18399;SDS011;9326;49.468;11.008;2024-01-30T15:36:07;16.73;;;13.87;;
18399;SDS011;9326;49.468;11.008;2024-01-30T15:38:35;14.93;;;11.13;;
18399;SDS011;9326;49.468;11.008;2024-01-30T15:41:03;18.83;;;14.47;;
18399;SDS011;9326;49.468;11.008;2024-01-30T15:43:31;16.33;;;13.77;;
18399;SDS011;9326;49.468;11.008;2024-01-30T15:45:59;18.03;;;13.50;;
18399;SDS011;9326;49.468;11.008;2024-01-30T15:48:28;41.40;;;35.23;;
18399;SDS011;9326;49.468;11.008;2024-01-30T15:50:55;26.00;;;19.37;;
18399;SDS011;9326;49.468;11.008;2024-01-30T15:53:23;34.97;;;28.57;;
18399;SDS011;9326;49.468;11.008;2024-01-30T15:55:51;34.23;;;26.37;;
18399;SDS011;9326;49.468;11.008;2024-01-30T15:58:26;32.10;;;25.63;;
18399;SDS011;9326;49.468;11.008;2024-01-30T16:00:55;19.90;;;16.57;;
18399;SDS011;9326;49.468;11.008;2024-01-30T16:03:23;22.27;;;17.63;;
18399;SDS011;9326;49.468;11.008;2024-01-30T16:05:52;23.17;;;17.10;;
18399;SDS011;9326;49.468;11.008;2024-01-30T16:08:20;32.37;;;26.67;;
18399;SDS011;9326;49.468;11.008;2024-01-30T16:10:47;34.20;;;26.57;;
18399;SDS011;9326;49.468;11.008;2024-01-30T16:13:14;51.93;;;39.30;;
18399;SDS011;9326;49.468;11.008;2024-01-30T16:15:42;153.47;;;107.50;;
18399;SDS011;9326;49.468;11.008;2024-01-30T16:18:09;56.30;;;42.87;;
18399;SDS011;9326;49.468;11.008;2024-01-30T16:20:37;29.87;;;19.97;;
18399;SDS011;9326;49.468;11.008;2024-01-30T16:23:06;25.10;;;19.70;;
18399;SDS011;9326;49.468;11.008;2024-01-30T16:25:33;22.90;;;16.10;;
18399;SDS011;9326;49.468;11.008;2024-01-30T16:28:02;25.10;;;17.83;;
18399;SDS011;9326;49.468;11.008;2024-01-30T16:30:29;24.47;;;19.77;;
18399;SDS011;9326;49.468;11.008;2024-01-30T16:32:56;19.57;;;15.03;;
18399;SDS011;9326;49.468;11.008;2024-01-30T16:35:26;20.83;;;16.07;;
18399;SDS011;9326;49.468;11.008;2024-01-30T16:37:54;18.87;;;14.37;;
18399;SDS011;9326;49.468;11.008;2024-01-30T16:40:23;22.43;;;15.77;;
18399;SDS011;9326;49.468;11.008;2024-01-30T16:42:50;24.27;;;17.17;;
18399;SDS011;9326;49.468;11.008;2024-01-30T16:45:17;24.90;;;16.30;;
18399;SDS011;9326;49.468;11.008;2024-01-30T16:47:44;27.13;;;19.43;;
18399;SDS011;9326;49.468;11.008;2024-01-30T16:50:12;24.13;;;16.90;;
18399;SDS011;9326;49.468;11.008;2024-01-30T16:52:39;23.93;;;15.10;;
18399;SDS011;9326;49.468;11.008;2024-01-30T16:55:07;22.03;;;14.67;;
18399;SDS011;9326;49.468;11.008;2024-01-30T16:57:36;20.20;;;14.00;;
18399;SDS011;9326;49.468;11.008;2024-01-30T17:00:04;16.27;;;13.30;;
18399;SDS011;9326;49.468;11.008;2024-01-30T17:02:33;15.77;;;13.13;;
18399;SDS011;9326;49.468;11.008;2024-01-30T17:05:00;16.53;;;13.60;;
18399;SDS011;9326;49.468;11.008;2024-01-30T17:07:27;19.90;;;14.83;;
18399;SDS011;9326;49.468;11.008;2024-01-30T17:09:59;18.43;;;15.20;;
18399;SDS011;9326;49.468;11.008;2024-01-30T17:12:26;21.57;;;15.53;;
18399;SDS011;9326;49.468;11.008;2024-01-30T17:14:55;23.47;;;17.07;;
18399;SDS011;9326;49.468;11.008;2024-01-30T17:17:23;24.00;;;16.63;;
18399;SDS011;9326;49.468;11.008;2024-01-30T17:19:50;23.57;;;16.90;;
18399;SDS011;9326;49.468;11.008;2024-01-30T17:22:18;23.80;;;17.30;;
18399;SDS011;9326;49.468;11.008;2024-01-30T17:24:47;20.07;;;15.37;;
18399;SDS011;9326;49.468;11.008;2024-01-30T17:27:14;22.27;;;15.83;;
18399;SDS011;9326;49.468;11.008;2024-01-30T17:29:41;23.23;;;16.83;;
18399;SDS011;9326;49.468;11.008;2024-01-30T17:32:10;23.67;;;16.80;;
18399;SDS011;9326;49.468;11.008;2024-01-30T17:34:38;24.60;;;17.17;;
18399;SDS011;9326;49.468;11.008;2024-01-30T17:37:05;23.03;;;16.70;;
18399;SDS011;9326;49.468;11.008;2024-01-30T17:39:33;17.30;;;15.47;;
18399;SDS011;9326;49.468;11.008;2024-01-30T17:42:00;22.60;;;17.73;;
18399;SDS011;9326;49.468;11.008;2024-01-30T17:44:27;48.40;;;36.77;;
18399;SDS011;9326;49.468;11.008;2024-01-30T17:46:57;67.53;;;45.37;;
18399;SDS011;9326;49.468;11.008;2024-01-30T17:49:26;45.40;;;30.43;;
18399;SDS011;9326;49.468;11.008;2024-01-30T17:51:54;52.30;;;32.23;;
18399;SDS011;9326;49.468;11.008;2024-01-30T17:54:22;59.33;;;37.60;;
18399;SDS011;9326;49.468;11.008;2024-01-30T17:56:49;62.93;;;38.40;;
18399;SDS011;9326;49.468;11.008;2024-01-30T17:59:16;65.67;;;40.83;;
18399;SDS011;9326;49.468;11.008;2024-01-30T18:01:46;86.53;;;54.03;;
18399;SDS011;9326;49.468;11.008;2024-01-30T18:04:15;47.17;;;32.83;;
18399;SDS011;9326;49.468;11.008;2024-01-30T18:06:48;34.67;;;24.03;;
18399;SDS011;9326;49.468;11.008;2024-01-30T18:09:15;24.20;;;18.87;;
18399;SDS011;9326;49.468;11.008;2024-01-30T18:11:42;26.17;;;19.80;;
18399;SDS011;9326;49.468;11.008;2024-01-30T18:14:10;23.87;;;21.27;;
18399;SDS011;9326;49.468;11.008;2024-01-30T18:16:37;19.50;;;16.03;;
18399;SDS011;9326;49.468;11.008;2024-01-30T18:19:05;19.63;;;14.63;;
18399;SDS011;9326;49.468;11.008;2024-01-30T18:21:32;18.03;;;14.93;;
18399;SDS011;9326;49.468;11.008;2024-01-30T18:24:05;20.70;;;15.33;;
18399;SDS011;9326;49.468;11.008;2024-01-30T18:26:32;18.40;;;15.50;;
18399;SDS011;9326;49.468;11.008;2024-01-30T18:28:59;21.43;;;16.77;;
18399;SDS011;9326;49.468;11.008;2024-01-30T18:31:27;17.03;;;14.80;;
18399;SDS011;9326;49.468;11.008;2024-01-30T18:33:55;17.43;;;15.40;;
18399;SDS011;9326;49.468;11.008;2024-01-30T18:36:22;23.97;;;19.43;;
18399;SDS011;9326;49.468;11.008;2024-01-30T18:38:50;20.70;;;16.50;;
18399;SDS011;9326;49.468;11.008;2024-01-30T18:41:18;20.33;;;16.27;;
18399;SDS011;9326;49.468;11.008;2024-01-30T18:43:46;18.83;;;15.90;;
18399;SDS011;9326;49.468;11.008;2024-01-30T18:46:13;21.87;;;17.40;;
18399;SDS011;9326;49.468;11.008;2024-01-30T18:48:46;20.67;;;16.83;;
18399;SDS011;9326;49.468;11.008;2024-01-30T18:51:13;20.47;;;17.67;;
18399;SDS011;9326;49.468;11.008;2024-01-30T18:53:41;22.60;;;19.00;;
18399;SDS011;9326;49.468;11.008;2024-01-30T18:56:08;27.87;;;21.70;;
18399;SDS011;9326;49.468;11.008;2024-01-30T18:58:37;20.40;;;17.60;;
18399;SDS011;9326;49.468;11.008;2024-01-30T19:01:04;21.90;;;16.83;;
18399;SDS011;9326;49.468;11.008;2024-01-30T19:03:32;22.30;;;18.83;;
18399;SDS011;9326;49.468;11.008;2024-01-30T19:05:59;26.73;;;19.93;;
18399;SDS011;9326;49.468;11.008;2024-01-30T19:08:27;34.23;;;25.83;;
18399;SDS011;9326;49.468;11.008;2024-01-30T19:10:55;27.20;;;20.43;;
18399;SDS011;9326;49.468;11.008;2024-01-30T19:13:23;32.73;;;25.13;;
18399;SDS011;9326;49.468;11.008;2024-01-30T19:15:55;26.87;;;21.50;;
18399;SDS011;9326;49.468;11.008;2024-01-30T19:18:22;23.17;;;19.37;;
18399;SDS011;9326;49.468;11.008;2024-01-30T19:20:49;22.97;;;18.90;;
18399;SDS011;9326;49.468;11.008;2024-01-30T19:23:17;25.53;;;21.17;;
18399;SDS011;9326;49.468;11.008;2024-01-30T19:25:44;24.70;;;19.13;;
18399;SDS011;9326;49.468;11.008;2024-01-30T19:28:12;25.50;;;20.57;;